createdAt,value
2017-12-19T00:01:01.947Z,102545.85
2017-12-19T00:03:29.471Z,102541.92
2017-12-19T00:05:56.998Z,102546.84
2017-12-19T00:08:24.572Z,102542.83
2017-12-19T00:10:52.082Z,102544.27
2017-12-19T00:13:19.605Z,102557.84
2017-12-19T00:15:47.137Z,102572.14
2017-12-19T00:18:14.660Z,102561.48
2017-12-19T00:20:42.188Z,102554.56
2017-12-19T00:23:09.706Z,102547.52
2017-12-19T00:25:37.237Z,102563.28
2017-12-19T00:28:04.797Z,102545.90
2017-12-19T00:30:32.321Z,102557.30
2017-12-19T00:32:59.843Z,102547.66
2017-12-19T00:35:27.377Z,102545.47
2017-12-19T00:37:54.901Z,102546.44
2017-12-19T00:40:22.453Z,102544.81
2017-12-19T00:42:49.979Z,102555.02
2017-12-19T00:45:17.509Z,102558.30
2017-12-19T00:47:45.031Z,102559.28
2017-12-19T00:50:12.557Z,102567.87
2017-12-19T00:52:40.087Z,102566.69
2017-12-19T00:55:07.849Z,102568.44
2017-12-19T00:57:35.371Z,102573.38
2017-12-19T01:00:02.900Z,102578.72
2017-12-19T01:02:30.432Z,102585.86
2017-12-19T01:04:57.950Z,102582.79
2017-12-19T01:07:25.486Z,102583.51
2017-12-19T01:09:53.030Z,102587.50
2017-12-19T01:12:20.556Z,102588.95
2017-12-19T01:14:48.107Z,102589.37
2017-12-19T01:17:15.631Z,102587.73
2017-12-19T01:19:43.154Z,102590.27
2017-12-19T01:22:10.683Z,102594.00
2017-12-19T01:24:38.211Z,102600.61
2017-12-19T01:27:06.025Z,102597.52
2017-12-19T01:29:34.315Z,102597.09
2017-12-19T01:32:01.838Z,102596.74
2017-12-19T01:34:29.358Z,102600.16
2017-12-19T01:36:56.886Z,102592.32
2017-12-19T01:39:24.410Z,102594.02
2017-12-19T01:41:52.758Z,102606.09
2017-12-19T01:44:20.284Z,102609.05
2017-12-19T01:46:47.815Z,102608.20
2017-12-19T01:49:15.346Z,102606.95
2017-12-19T01:51:42.874Z,102607.00
2017-12-19T01:54:10.397Z,102603.37
2017-12-19T01:56:37.923Z,102599.50
2017-12-19T01:59:05.454Z,102592.55
2017-12-19T02:01:32.970Z,102594.28
2017-12-19T02:04:00.493Z,102595.95
2017-12-19T02:06:28.019Z,102590.50
2017-12-19T02:08:55.549Z,102589.39
2017-12-19T02:11:23.080Z,102597.39
2017-12-19T02:13:50.604Z,102605.66
2017-12-19T02:16:18.132Z,102596.09
2017-12-19T02:18:45.654Z,102596.86
2017-12-19T02:21:13.181Z,102586.77
2017-12-19T02:23:40.699Z,102580.68
2017-12-19T02:26:08.225Z,102585.18
2017-12-19T02:28:35.732Z,102582.56
2017-12-19T02:31:03.244Z,102582.11
2017-12-19T02:33:30.784Z,102580.11
2017-12-19T02:35:58.307Z,102577.89
2017-12-19T02:38:25.826Z,102588.05
2017-12-19T02:40:53.357Z,102586.62
2017-12-19T02:43:21.738Z,102589.03
2017-12-19T02:45:53.243Z,102573.59
2017-12-19T02:48:20.779Z,102570.10
2017-12-19T02:50:48.302Z,102571.87
2017-12-19T02:53:15.835Z,102563.30
2017-12-19T02:55:43.423Z,102568.86
2017-12-19T02:58:10.910Z,102560.61
2017-12-19T03:00:38.457Z,102560.19
2017-12-19T03:03:05.998Z,102563.37
2017-12-19T03:05:33.531Z,102573.47
2017-12-19T03:08:01.050Z,102589.33
2017-12-19T03:10:28.574Z,102596.02
2017-12-19T03:12:56.109Z,102594.28
2017-12-19T03:15:23.644Z,102591.90
2017-12-19T03:17:51.191Z,102592.42
2017-12-19T03:20:18.713Z,102590.66
2017-12-19T03:22:46.247Z,102598.13
2017-12-19T03:25:13.766Z,102603.64
2017-12-19T03:27:41.290Z,102598.25
2017-12-19T03:30:08.820Z,102593.83
2017-12-19T03:32:37.950Z,102588.56
2017-12-19T03:35:05.474Z,102576.80
2017-12-19T03:37:33.037Z,102577.12
2017-12-19T03:40:00.568Z,102583.73
2017-12-19T03:42:28.118Z,102594.30
2017-12-19T03:44:55.641Z,102597.27
2017-12-19T03:47:23.172Z,102590.30
2017-12-19T03:49:50.699Z,102593.38
2017-12-19T03:52:18.226Z,102594.27
2017-12-19T03:54:45.780Z,102597.81
2017-12-19T03:57:13.321Z,102612.80
2017-12-19T03:59:40.871Z,102614.11
2017-12-19T04:02:08.395Z,102607.98
2017-12-19T04:04:35.935Z,102594.40
2017-12-19T04:07:03.479Z,102591.35
2017-12-19T04:09:31.008Z,102591.44
2017-12-19T04:11:58.530Z,102592.98
2017-12-19T04:14:26.091Z,102592.67
2017-12-19T04:16:53.617Z,102602.44
2017-12-19T04:19:21.145Z,102608.70
2017-12-19T04:21:48.671Z,102602.11
2017-12-19T04:24:16.199Z,102605.73
2017-12-19T04:26:43.723Z,102607.78
2017-12-19T04:29:11.252Z,102597.69
2017-12-19T04:31:38.794Z,102590.62
2017-12-19T04:34:06.330Z,102586.22
2017-12-19T04:36:33.857Z,102595.72
2017-12-19T04:39:01.388Z,102588.03
2017-12-19T04:41:28.939Z,102589.28
2017-12-19T04:43:56.470Z,102585.53
2017-12-19T04:46:23.999Z,102584.21
2017-12-19T04:48:51.522Z,102577.98
2017-12-19T04:51:19.059Z,102586.42
2017-12-19T04:53:46.597Z,102593.47
2017-12-19T04:56:14.163Z,102596.13
2017-12-19T04:58:41.691Z,102591.22
2017-12-19T05:01:09.220Z,102601.17
2017-12-19T05:03:36.746Z,102606.56
2017-12-19T05:06:04.266Z,102610.91
2017-12-19T05:08:31.790Z,102614.40
2017-12-19T05:10:59.320Z,102606.54
2017-12-19T05:13:26.845Z,102596.88
2017-12-19T05:15:54.366Z,102597.76
2017-12-19T05:18:21.891Z,102587.28
2017-12-19T05:20:49.423Z,102582.50
2017-12-19T05:23:16.957Z,102582.98
2017-12-19T05:25:44.503Z,102597.08
2017-12-19T05:28:12.050Z,102594.34
2017-12-19T05:30:39.590Z,102589.23
2017-12-19T05:33:07.128Z,102593.11
2017-12-19T05:35:34.653Z,102598.92
2017-12-19T05:38:02.179Z,102595.73
2017-12-19T05:40:29.721Z,102605.91
2017-12-19T05:42:57.250Z,102606.67
2017-12-19T05:45:24.780Z,102602.81
2017-12-19T05:47:52.325Z,102603.14
2017-12-19T05:50:19.859Z,102601.91
2017-12-19T05:52:47.387Z,102611.61
2017-12-19T05:55:14.908Z,102611.59
2017-12-19T05:57:42.436Z,102613.83
2017-12-19T06:00:09.968Z,102605.46
2017-12-19T06:02:37.489Z,102596.61
2017-12-19T06:05:05.012Z,102597.59
2017-12-19T06:07:32.542Z,102603.88
2017-12-19T06:10:00.089Z,102596.84
2017-12-19T06:12:27.618Z,102595.94
2017-12-19T06:14:55.148Z,102597.81
2017-12-19T06:17:22.669Z,102600.86
2017-12-19T06:19:50.192Z,102596.91
2017-12-19T06:22:17.725Z,102596.47
2017-12-19T06:24:45.254Z,102603.60
2017-12-19T06:27:12.784Z,102597.38
2017-12-19T06:29:40.302Z,102587.22
2017-12-19T06:32:07.823Z,102602.83
2017-12-19T06:34:35.349Z,102603.17
2017-12-19T06:37:02.879Z,102614.20
2017-12-19T06:39:30.401Z,102613.23
2017-12-19T06:41:57.921Z,102621.78
2017-12-19T06:44:25.460Z,102626.12
2017-12-19T06:46:52.976Z,102626.63
2017-12-19T06:49:20.495Z,102616.52
2017-12-19T06:51:48.038Z,102612.73
2017-12-19T06:54:15.567Z,102616.79
2017-12-19T06:56:43.099Z,102623.06
2017-12-19T06:59:10.672Z,102636.81
2017-12-19T07:01:38.208Z,102655.52
2017-12-19T07:04:05.732Z,102653.23
2017-12-19T07:06:33.250Z,102643.16
2017-12-19T07:09:00.793Z,102652.52
2017-12-19T07:11:28.323Z,102654.66
2017-12-19T07:13:55.855Z,102663.05
2017-12-19T07:16:23.382Z,102667.33
2017-12-19T07:18:50.906Z,102664.28
2017-12-19T07:21:18.425Z,102657.36
2017-12-19T07:23:45.952Z,102658.70
2017-12-19T07:26:13.486Z,102646.28
2017-12-19T07:28:40.997Z,102634.38
2017-12-19T07:31:08.527Z,102629.69
2017-12-19T07:33:36.044Z,102634.08
2017-12-19T07:36:03.576Z,102652.19
2017-12-19T07:38:31.103Z,102671.66
2017-12-19T07:40:58.642Z,102669.39
2017-12-19T07:43:26.177Z,102660.48
2017-12-19T07:45:53.706Z,102655.70
2017-12-19T07:48:21.229Z,102654.85
2017-12-19T07:50:48.752Z,102645.22
2017-12-19T07:53:16.274Z,102647.95
2017-12-19T07:55:43.797Z,102632.91
2017-12-19T07:58:11.330Z,102638.59
2017-12-19T08:00:38.845Z,102641.27
2017-12-19T08:03:06.385Z,102645.05
2017-12-19T08:05:33.907Z,102641.78
2017-12-19T08:08:01.436Z,102643.45
2017-12-19T08:10:28.967Z,102643.56
2017-12-19T08:12:56.492Z,102650.45
2017-12-19T08:15:24.017Z,102657.47
2017-12-19T08:17:51.543Z,102654.48
2017-12-19T08:20:19.086Z,102664.28
2017-12-19T08:22:46.623Z,102669.50
2017-12-19T08:25:14.151Z,102674.59
2017-12-19T08:27:41.694Z,102670.34
2017-12-19T08:30:09.226Z,102664.73
2017-12-19T08:32:36.755Z,102664.28
2017-12-19T08:35:04.273Z,102661.22
2017-12-19T08:37:31.810Z,102659.09
2017-12-19T08:39:59.337Z,102665.34
2017-12-19T08:42:26.866Z,102652.23
2017-12-19T08:44:54.409Z,102656.77
2017-12-19T08:47:21.939Z,102650.98
2017-12-19T08:49:49.466Z,102639.59
2017-12-19T08:52:16.991Z,102649.81
2017-12-19T08:54:44.515Z,102664.92
2017-12-19T08:57:12.044Z,102654.83
2017-12-19T08:59:39.575Z,102657.42
2017-12-19T09:02:07.099Z,102652.27
2017-12-19T09:04:34.626Z,102659.15
2017-12-19T09:07:02.150Z,102667.81
2017-12-19T09:09:29.671Z,102671.55
2017-12-19T09:11:57.198Z,102682.31
2017-12-19T09:14:24.735Z,102688.23
2017-12-19T09:16:52.253Z,102689.80
2017-12-19T09:19:19.775Z,102705.33
2017-12-19T09:21:47.316Z,102706.78
2017-12-19T09:24:14.875Z,102693.95
2017-12-19T09:26:42.416Z,102692.18
2017-12-19T09:29:09.974Z,102685.98
2017-12-19T09:31:37.507Z,102693.96
2017-12-19T09:34:05.045Z,102688.82
2017-12-19T09:36:32.562Z,102687.77
2017-12-19T09:39:00.090Z,102688.98
2017-12-19T09:41:27.614Z,102684.70
2017-12-19T09:43:55.152Z,102678.47
2017-12-19T09:46:22.687Z,102667.31
2017-12-19T09:48:50.211Z,102667.77
2017-12-19T09:51:17.753Z,102653.53
2017-12-19T09:53:45.278Z,102665.11
2017-12-19T09:56:12.803Z,102663.59
2017-12-19T09:58:40.327Z,102672.27
2017-12-19T10:01:07.854Z,102664.89
2017-12-19T10:03:35.382Z,102670.80
2017-12-19T10:06:02.905Z,102684.94
2017-12-19T10:08:30.426Z,102681.28
2017-12-19T10:10:57.952Z,102679.55
2017-12-19T10:13:25.472Z,102670.42
2017-12-19T10:15:53.006Z,102667.79
2017-12-19T10:18:20.539Z,102671.69
2017-12-19T10:20:48.056Z,102673.25
2017-12-19T10:23:15.582Z,102676.69
2017-12-19T10:25:43.237Z,102670.44
2017-12-19T10:28:10.774Z,102672.50
2017-12-19T10:30:38.294Z,102683.69
2017-12-19T10:33:05.876Z,102687.81
2017-12-19T10:35:33.412Z,102694.16
2017-12-19T10:38:00.941Z,102701.72
2017-12-19T10:40:28.468Z,102687.22
2017-12-19T10:42:56.001Z,102690.05
2017-12-19T10:45:23.567Z,102688.71
2017-12-19T10:47:51.082Z,102683.35
2017-12-19T10:50:18.610Z,102692.33
2017-12-19T10:52:46.136Z,102685.97
2017-12-19T10:55:13.667Z,102676.71
2017-12-19T10:57:41.187Z,102668.80
2017-12-19T11:00:08.711Z,102677.66
2017-12-19T11:02:36.230Z,102664.02
2017-12-19T11:05:03.780Z,102659.98
2017-12-19T11:07:31.308Z,102667.42
2017-12-19T11:09:58.849Z,102661.08
2017-12-19T11:12:26.369Z,102662.09
2017-12-19T11:14:53.897Z,102649.72
2017-12-19T11:17:21.418Z,102645.08
2017-12-19T11:19:48.946Z,102642.94
2017-12-19T11:22:16.480Z,102636.05
2017-12-19T11:24:44.018Z,102624.30
2017-12-19T11:27:11.551Z,102618.73
2017-12-19T11:29:39.091Z,102616.91
2017-12-19T11:32:06.909Z,102620.69
2017-12-19T11:34:34.492Z,102625.38
2017-12-19T11:37:02.059Z,102637.20
2017-12-19T11:39:29.580Z,102643.24
2017-12-19T11:41:57.104Z,102638.31
2017-12-19T11:44:24.623Z,102625.61
2017-12-19T11:46:52.153Z,102607.92
2017-12-19T11:49:19.674Z,102613.17
2017-12-19T11:51:47.231Z,102612.23
2017-12-19T11:54:14.749Z,102605.66
2017-12-19T11:56:42.270Z,102604.77
2017-12-19T11:59:09.801Z,102620.31
2017-12-19T12:01:37.322Z,102624.19
2017-12-19T12:04:04.882Z,102624.50
2017-12-19T12:06:32.413Z,102624.11
2017-12-19T12:08:59.944Z,102622.41
2017-12-19T12:11:27.469Z,102599.98
2017-12-19T12:13:55.031Z,102587.97
2017-12-19T12:16:22.543Z,102595.80
2017-12-19T12:18:50.559Z,102594.41
2017-12-19T12:21:18.087Z,102600.61
2017-12-19T12:23:45.605Z,102603.27
2017-12-19T12:26:13.131Z,102597.31
2017-12-19T12:28:40.678Z,102598.96
2017-12-19T12:31:08.207Z,102599.16
2017-12-19T12:33:35.737Z,102602.77
2017-12-19T12:36:03.261Z,102602.00
2017-12-19T12:38:30.790Z,102585.95
2017-12-19T12:40:58.314Z,102567.77
2017-12-19T12:43:25.830Z,102579.37
2017-12-19T12:45:53.364Z,102593.33
2017-12-19T12:48:20.899Z,102598.97
2017-12-19T12:50:48.422Z,102598.28
2017-12-19T12:53:15.949Z,102608.81
2017-12-19T12:55:43.485Z,102603.50
2017-12-19T12:58:11.013Z,102614.42
2017-12-19T13:00:38.549Z,102613.67
2017-12-19T13:03:06.075Z,102603.13
2017-12-19T13:05:33.607Z,102602.13
2017-12-19T13:08:01.125Z,102602.17
2017-12-19T13:10:28.652Z,102607.50
2017-12-19T13:12:56.182Z,102603.02
2017-12-19T13:15:23.702Z,102618.98
2017-12-19T13:17:51.218Z,102619.93
2017-12-19T13:20:18.744Z,102619.48
2017-12-19T13:22:46.307Z,102615.44
2017-12-19T13:25:13.834Z,102605.73
2017-12-19T13:27:41.430Z,102591.31
2017-12-19T13:30:08.961Z,102616.80
2017-12-19T13:32:36.484Z,102609.84
2017-12-19T13:35:04.005Z,102621.25
2017-12-19T13:37:31.529Z,102627.78
2017-12-19T13:39:59.061Z,102606.66
2017-12-19T13:42:26.580Z,102612.50
2017-12-19T13:44:54.106Z,102612.81
2017-12-19T13:47:21.657Z,102616.86
2017-12-19T13:49:49.204Z,102625.31
2017-12-19T13:52:16.821Z,102626.13
2017-12-19T13:54:44.395Z,102634.09
2017-12-19T13:57:11.922Z,102632.77
2017-12-19T13:59:39.443Z,102625.70
2017-12-19T14:02:06.981Z,102628.84
2017-12-19T14:04:34.518Z,102631.89
2017-12-19T14:07:02.148Z,102625.80
2017-12-19T14:09:29.682Z,102629.87
2017-12-19T14:11:57.286Z,102633.39
2017-12-19T14:14:24.833Z,102637.39
2017-12-19T14:16:52.356Z,102632.97
2017-12-19T14:19:19.916Z,102633.90
2017-12-19T14:21:47.446Z,102642.24
2017-12-19T14:24:15.025Z,102644.02
2017-12-19T14:26:42.549Z,102653.80
2017-12-19T14:29:10.239Z,102653.44
2017-12-19T14:31:37.793Z,102651.28
2017-12-19T14:34:05.350Z,102649.95
2017-12-19T14:36:32.881Z,102654.39
2017-12-19T14:39:00.422Z,102652.16
2017-12-19T14:41:27.970Z,102656.14
2017-12-19T14:43:55.527Z,102654.44
2017-12-19T14:46:23.072Z,102657.03
2017-12-19T14:48:50.609Z,102663.73
2017-12-19T14:51:18.161Z,102658.42
2017-12-19T14:53:45.728Z,102660.69
2017-12-19T14:56:13.250Z,102654.05
2017-12-19T14:58:40.770Z,102651.02
2017-12-19T15:01:08.298Z,102650.64
2017-12-19T15:03:35.830Z,102657.27
2017-12-19T15:06:03.386Z,102662.48
2017-12-19T15:08:30.915Z,102660.25
2017-12-19T15:10:58.473Z,102661.63
2017-12-19T15:13:26.005Z,102659.31
2017-12-19T15:15:53.530Z,102665.62
2017-12-19T15:18:21.046Z,102666.14
2017-12-19T15:20:48.584Z,102672.83
2017-12-19T15:23:16.098Z,102666.97
2017-12-19T15:25:43.618Z,102667.78
2017-12-19T15:28:11.158Z,102670.92
2017-12-19T15:30:38.683Z,102677.13
2017-12-19T15:33:06.203Z,102677.64
2017-12-19T15:35:33.734Z,102675.38
2017-12-19T15:38:01.263Z,102674.08
2017-12-19T15:40:28.785Z,102679.40
2017-12-19T15:42:56.310Z,102679.91
2017-12-19T15:45:23.836Z,102680.74
2017-12-19T15:47:51.381Z,102681.67
2017-12-19T15:50:18.970Z,102679.08
2017-12-19T15:52:46.502Z,102686.17
2017-12-19T15:55:14.024Z,102691.41
2017-12-19T15:57:41.569Z,102685.67
2017-12-19T16:00:09.085Z,102693.23
2017-12-19T16:02:36.612Z,102689.27
2017-12-19T16:05:04.141Z,102688.38
2017-12-19T16:07:31.655Z,102693.75
2017-12-19T17:31:56.251Z,102706.91
2017-12-19T17:34:23.777Z,102710.00
2017-12-19T17:36:51.306Z,102713.17
2017-12-19T17:39:18.835Z,102727.78
2017-12-19T17:41:46.379Z,102720.29
2017-12-19T17:44:13.902Z,102718.65
2017-12-19T17:46:41.434Z,102713.67
2017-12-19T17:49:09.398Z,102710.58
2017-12-19T17:51:36.934Z,102715.93
2017-12-19T17:54:04.491Z,102714.12
2017-12-19T17:56:32.020Z,102716.38
2017-12-19T17:58:59.538Z,102715.11
2017-12-19T18:01:27.049Z,102714.16
2017-12-19T18:03:54.590Z,102711.53
2017-12-19T18:06:22.128Z,102716.83
2017-12-19T18:08:49.669Z,102718.65
2017-12-19T18:11:17.201Z,102720.48
2017-12-19T18:13:44.727Z,102716.89
2017-12-19T18:16:12.263Z,102713.29
2017-12-19T18:18:39.811Z,102719.09
2017-12-19T18:21:07.339Z,102728.27
2017-12-19T18:23:34.862Z,102726.62
2017-12-19T18:26:02.401Z,102726.13
2017-12-19T18:28:29.944Z,102727.45
2017-12-19T18:30:57.475Z,102720.80
2017-12-19T18:33:25.003Z,102713.29
2017-12-19T18:35:52.539Z,102712.45
2017-12-19T18:38:20.069Z,102714.18
2017-12-19T18:40:47.600Z,102713.29
2017-12-19T18:43:15.126Z,102718.53
2017-12-19T18:45:42.680Z,102711.45
2017-12-19T18:48:10.223Z,102716.71
2017-12-19T18:50:37.768Z,102720.69
2017-12-19T18:53:05.290Z,102719.86
2017-12-19T18:55:32.879Z,102725.61
2017-12-19T18:58:00.411Z,102725.62
2017-12-19T19:00:27.974Z,102715.89
2017-12-19T19:02:55.502Z,102706.63
2017-12-19T19:05:23.139Z,102719.92
2017-12-19T19:07:50.684Z,102709.69
2017-12-19T19:10:18.210Z,102707.52
2017-12-19T19:12:45.737Z,102719.05
2017-12-19T19:15:13.359Z,102722.15
2017-12-19T19:17:40.891Z,102720.83
2017-12-19T19:20:09.311Z,102718.15
2017-12-19T19:22:36.861Z,102720.25
2017-12-19T19:25:04.390Z,102723.41
2017-12-19T19:27:31.920Z,102716.83
2017-12-19T19:29:59.447Z,102725.17
2017-12-19T19:32:27.252Z,102726.95
2017-12-19T19:34:54.824Z,102734.34
2017-12-19T19:37:22.434Z,102727.64
2017-12-19T19:39:49.966Z,102734.73
2017-12-19T19:42:17.493Z,102738.75
2017-12-19T19:44:45.041Z,102739.64
2017-12-19T19:47:12.590Z,102747.11
2017-12-19T19:49:40.129Z,102738.20
2017-12-19T19:52:07.662Z,102747.92
2017-12-19T19:54:35.196Z,102747.91
2017-12-19T19:57:02.725Z,102754.50
2017-12-19T19:59:30.245Z,102756.34
2017-12-19T20:01:57.757Z,102757.78
2017-12-19T20:04:25.302Z,102751.09
2017-12-19T20:06:52.828Z,102754.70
2017-12-19T20:09:20.351Z,102753.73
2017-12-19T20:11:47.885Z,102759.99
2017-12-19T20:14:15.498Z,102763.92
2017-12-19T20:16:43.019Z,102775.78
2017-12-19T20:19:10.577Z,102784.70
2017-12-19T20:21:38.099Z,102786.05
2017-12-19T20:24:05.632Z,102785.61
2017-12-19T20:26:33.174Z,102795.47
2017-12-19T20:29:00.712Z,102798.96
2017-12-19T20:31:28.252Z,102790.16
2017-12-19T20:33:55.787Z,102793.72
2017-12-19T20:36:23.310Z,102779.49
2017-12-19T20:38:50.828Z,102790.59
2017-12-19T20:41:18.360Z,102793.11
2017-12-19T20:43:45.915Z,102799.39
2017-12-19T20:46:13.449Z,102790.09
2017-12-19T20:48:40.978Z,102790.91
2017-12-19T20:51:08.515Z,102788.33
2017-12-19T20:53:36.043Z,102793.20
2017-12-19T20:56:03.575Z,102794.89
2017-12-19T20:58:31.100Z,102793.64
2017-12-19T21:00:58.629Z,102790.59
2017-12-19T21:03:26.150Z,102798.07
2017-12-19T21:05:53.673Z,102800.77
2017-12-19T21:08:21.194Z,102794.97
2017-12-19T21:10:48.722Z,102799.39
2017-12-19T21:13:16.247Z,102811.72
2017-12-19T21:15:43.769Z,102815.25
2017-12-19T21:18:11.299Z,102814.50
2017-12-19T21:20:38.830Z,102806.98
2017-12-19T21:23:06.370Z,102802.61
2017-12-19T21:25:33.897Z,102807.03
2017-12-19T21:28:01.504Z,102805.95
2017-12-19T21:30:29.026Z,102808.17
2017-12-19T21:32:56.555Z,102813.55
2017-12-19T21:35:24.079Z,102820.20
2017-12-19T21:37:51.612Z,102814.89
2017-12-19T21:40:19.149Z,102812.30
2017-12-19T21:42:46.692Z,102810.09
2017-12-19T21:45:14.218Z,102813.55
2017-12-19T21:47:41.773Z,102811.41
2017-12-19T21:50:09.306Z,102809.63
2017-12-19T21:52:36.829Z,102799.40
2017-12-19T21:55:04.353Z,102802.55
2017-12-19T21:57:31.957Z,102798.56
2017-12-19T21:59:59.509Z,102792.81
2017-12-19T22:02:27.122Z,102799.39
2017-12-19T22:04:54.655Z,102799.84
2017-12-19T22:07:22.223Z,102795.41
2017-12-19T22:09:49.815Z,102791.42
2017-12-19T22:12:17.342Z,102790.16
2017-12-19T22:14:44.868Z,102790.23
2017-12-19T22:17:12.397Z,102786.19
2017-12-19T22:19:39.988Z,102793.32
2017-12-19T22:22:07.514Z,102789.29
2017-12-19T22:24:35.153Z,102790.90
2017-12-19T22:27:02.695Z,102802.48
2017-12-19T22:29:30.302Z,102800.34
2017-12-19T22:31:57.821Z,102807.41
2017-12-19T22:34:25.390Z,102803.88
2017-12-19T22:36:52.929Z,102809.65
2017-12-19T22:39:20.470Z,102802.55
2017-12-19T22:41:47.994Z,102811.70
2017-12-19T22:44:15.560Z,102816.22
2017-12-19T22:46:43.154Z,102820.20
2017-12-19T22:49:10.702Z,102826.00
2017-12-19T22:51:38.293Z,102831.64
2017-12-19T22:54:05.869Z,102832.20
2017-12-19T22:56:33.460Z,102828.91
2017-12-19T22:59:00.995Z,102829.47
2017-12-19T23:01:28.527Z,102821.83
2017-12-19T23:03:56.054Z,102824.92
2017-12-19T23:06:23.599Z,102827.25
2017-12-19T23:08:51.153Z,102829.42
2017-12-19T23:11:18.669Z,102830.72
2017-12-19T23:13:46.299Z,102836.64
2017-12-19T23:16:13.830Z,102829.50
2017-12-19T23:18:41.360Z,102828.16
2017-12-19T23:21:08.877Z,102832.27
2017-12-19T23:23:36.426Z,102824.62
2017-12-19T23:26:03.984Z,102831.70
2017-12-19T23:28:31.647Z,102837.43
2017-12-19T23:30:59.182Z,102831.81
2017-12-19T23:33:26.753Z,102835.38
2017-12-19T23:35:54.475Z,102835.38
2017-12-19T23:38:22.012Z,102840.25
2017-12-19T23:40:49.590Z,102841.58
2017-12-19T23:43:17.161Z,102844.55
2017-12-19T23:45:44.719Z,102849.47
2017-12-19T23:48:12.259Z,102845.42
2017-12-19T23:50:39.783Z,102839.08
2017-12-19T23:53:07.324Z,102836.95
2017-12-19T23:55:34.960Z,102836.94
2017-12-19T23:58:02.529Z,102839.20
